Time;durP1;ratioP1;P1;durP2;ratioP2;P2;SDS_P1;SDS_P2;PMS_P1;PMS_P2;Temp;Humidity;BMP_temperature;BMP_pressure;BME280_temperature;BME280_humidity;BME280_pressure;Samples;Min_cycle;Max_cycle;Signal;HPM_P1;HPM_P2
2021/10/11 00:01:15;;;;;;;10.57;5.50;;;17.80;55.40;;;;;;5116541;28;20057;-58
2021/10/11 00:03:40;;;;;;;9.35;5.47;;;17.90;55.40;;;;;;5116225;28;20436;-59
2021/10/11 00:06:06;;;;;;;9.68;6.03;;;17.80;55.40;;;;;;5116119;28;20470;-58
2021/10/11 00:08:31;;;;;;;10.05;5.55;;;17.80;55.40;;;;;;5116038;28;20028;-58
2021/10/11 00:10:57;;;;;;;9.15;5.38;;;17.80;55.40;;;;;;5116003;28;20031;-58
2021/10/11 00:13:22;;;;;;;9.80;5.47;;;17.90;55.50;;;;;;5116012;28;20015;-58
2021/10/11 00:15:48;;;;;;;8.95;5.47;;;17.80;55.40;;;;;;5115913;28;20027;-57
2021/10/11 00:18:14;;;;;;;11.00;6.05;;;17.90;55.40;;;;;;5080743;28;20375;-57
2021/10/11 00:20:40;;;;;;;9.18;5.60;;;17.80;55.40;;;;;;5115762;28;20028;-58
2021/10/11 00:23:06;;;;;;;9.05;5.55;;;17.80;55.40;;;;;;5116037;28;20459;-59
2021/10/11 00:25:31;;;;;;;10.25;5.30;;;17.80;55.50;;;;;;5115708;28;20020;-60
2021/10/11 00:27:57;;;;;;;9.48;5.82;;;17.80;55.50;;;;;;5115943;28;20057;-59
2021/10/11 00:30:23;;;;;;;9.63;5.60;;;17.80;55.40;;;;;;5115417;28;20457;-59
2021/10/11 00:32:48;;;;;;;8.55;5.35;;;17.80;55.50;;;;;;5115836;28;20037;-58
2021/10/11 00:35:14;;;;;;;9.90;6.07;;;17.80;55.50;;;;;;5115355;28;20050;-59
2021/10/11 00:37:40;;;;;;;9.07;4.93;;;17.80;55.50;;;;;;5115496;28;20031;-58
2021/10/11 00:40:07;;;;;;;8.65;5.22;;;17.80;55.50;;;;;;5115300;28;20059;-60
2021/10/11 00:42:34;;;;;;;7.95;5.10;;;17.80;55.50;;;;;;5097022;28;20034;-59
2021/10/11 00:45:00;;;;;;;10.35;5.28;;;17.80;55.50;;;;;;5115445;28;20106;-59
2021/10/11 00:47:25;;;;;;;8.02;4.68;;;17.80;55.50;;;;;;5115305;28;20074;-58
2021/10/11 00:49:51;;;;;;;8.88;5.30;;;17.80;55.50;;;;;;5115108;28;20031;-59
2021/10/11 00:52:17;;;;;;;9.75;5.63;;;17.80;55.50;;;;;;5115236;28;20019;-58
2021/10/11 00:54:43;;;;;;;10.00;4.97;;;17.80;55.50;;;;;;5115050;28;20043;-59
2021/10/11 00:57:09;;;;;;;10.98;4.90;;;17.80;55.50;;;;;;5115055;28;20031;-58
2021/10/11 00:59:34;;;;;;;9.93;5.60;;;17.80;55.50;;;;;;5096781;28;20027;-57
2021/10/11 01:02:01;;;;;;;9.07;5.53;;;17.80;55.50;;;;;;5114950;28;20107;-58
2021/10/11 01:04:26;;;;;;;8.68;5.80;;;17.80;55.50;;;;;;5114773;28;20387;-58
2021/10/11 01:06:52;;;;;;;9.68;5.55;;;17.80;55.50;;;;;;5115049;28;20020;-59
2021/10/11 01:09:17;;;;;;;8.60;5.38;;;17.80;55.50;;;;;;5114756;28;20031;-59
2021/10/11 01:11:47;;;;;;;9.02;5.38;;;17.80;55.50;;;;;;5114754;28;20019;-60
2021/10/11 01:14:13;;;;;;;8.98;5.25;;;17.80;55.50;;;;;;5114949;28;20101;-58
2021/10/11 01:16:38;;;;;;;8.95;5.45;;;17.80;55.50;;;;;;5114721;28;20394;-58
2021/10/11 01:19:04;;;;;;;9.30;5.45;;;17.80;55.50;;;;;;5114644;28;20433;-58
2021/10/11 01:21:29;;;;;;;9.88;5.68;;;17.80;55.60;;;;;;5114571;28;20016;-58
2021/10/11 01:23:55;;;;;;;8.45;5.40;;;17.80;55.50;;;;;;5114573;28;20020;-58
2021/10/11 01:26:21;;;;;;;9.68;5.63;;;17.80;55.50;;;;;;5096186;28;20031;-58
2021/10/11 01:28:47;;;;;;;10.65;5.57;;;17.80;55.50;;;;;;5114441;28;20058;-57
2021/10/11 01:31:12;;;;;;;10.20;5.82;;;17.80;55.50;;;;;;5114651;28;20042;-59
2021/10/11 01:33:38;;;;;;;8.80;5.70;;;17.80;55.50;;;;;;5114537;28;20059;-57
2021/10/11 01:36:04;;;;;;;9.68;5.50;;;17.80;55.60;;;;;;5114384;28;20137;-58
2021/10/11 01:38:29;;;;;;;8.32;5.38;;;17.80;55.60;;;;;;5114251;28;20051;-58
2021/10/11 01:40:55;;;;;;;9.15;6.07;;;17.80;55.60;;;;;;5113918;28;20060;-58
2021/10/11 01:43:20;;;;;;;10.00;5.63;;;17.80;55.50;;;;;;5114089;28;20027;-59
2021/10/11 01:45:49;;;;;;;10.23;5.97;;;17.80;55.60;;;;;;5114524;28;20024;-58
2021/10/11 01:48:15;;;;;;;8.52;5.13;;;17.80;55.60;;;;;;5114367;28;20028;-56
2021/10/11 01:50:41;;;;;;;9.13;5.47;;;17.80;55.60;;;;;;5114018;28;20393;-58
2021/10/11 01:53:07;;;;;;;9.50;5.38;;;17.80;55.50;;;;;;5114008;28;20106;-57
2021/10/11 01:55:32;;;;;;;9.35;5.45;;;17.80;55.60;;;;;;5114334;28;20031;-58
2021/10/11 01:57:58;;;;;;;9.13;5.60;;;17.80;55.60;;;;;;5113917;28;20433;-58
2021/10/11 02:00:23;;;;;;;8.38;5.63;;;17.80;55.70;;;;;;5113834;28;20085;-57
2021/10/11 02:02:49;;;;;;;8.80;5.63;;;17.80;55.60;;;;;;5114023;28;20027;-58
2021/10/11 02:05:15;;;;;;;9.73;5.82;;;17.80;55.60;;;;;;5113964;28;20020;-57
2021/10/11 02:07:41;;;;;;;9.05;5.75;;;17.80;55.70;;;;;;5113748;28;20039;-58
2021/10/11 02:10:07;;;;;;;10.18;5.90;;;17.80;55.70;;;;;;5095650;28;20030;-57
2021/10/11 02:12:33;;;;;;;12.90;6.13;;;17.80;55.70;;;;;;5113784;28;20043;-59
2021/10/11 02:14:58;;;;;;;8.48;5.38;;;17.80;55.70;;;;;;5113574;28;20106;-55
2021/10/11 02:17:24;;;;;;;8.90;5.60;;;17.80;55.60;;;;;;5113676;28;20534;-58
2021/10/11 02:19:50;;;;;;;10.18;5.95;;;17.80;55.60;;;;;;5113853;28;20020;-59
2021/10/11 02:22:16;;;;;;;9.70;5.50;;;17.80;55.60;;;;;;5113595;28;20375;-59
2021/10/11 02:24:43;;;;;;;8.27;5.10;;;17.80;55.70;;;;;;5113604;28;20467;-58
2021/10/11 02:27:08;;;;;;;10.00;5.72;;;17.80;55.70;;;;;;5113485;28;20016;-58
2021/10/11 02:29:35;;;;;;;8.75;5.40;;;17.80;55.70;;;;;;5113507;28;20065;-58
2021/10/11 02:32:00;;;;;;;9.23;5.72;;;17.80;55.60;;;;;;5113378;28;20020;-59
2021/10/11 02:34:26;;;;;;;9.77;5.43;;;17.80;55.70;;;;;;5113512;28;20038;-58
2021/10/11 02:36:52;;;;;;;9.95;5.90;;;17.80;55.70;;;;;;5113434;28;20020;-59
2021/10/11 02:39:18;;;;;;;10.35;5.57;;;17.80;55.70;;;;;;5113135;28;20513;-58
2021/10/11 02:41:45;;;;;;;10.93;5.38;;;17.80;55.70;;;;;;5113581;28;20028;-57
2021/10/11 02:44:10;;;;;;;9.35;5.72;;;17.80;55.70;;;;;;5113307;28;20020;-57
2021/10/11 02:46:36;;;;;;;10.38;5.90;;;17.80;55.70;;;;;;5113301;28;20035;-58
2021/10/11 02:49:02;;;;;;;9.30;5.07;;;17.80;55.70;;;;;;5113319;28;20023;-57
2021/10/11 02:51:27;;;;;;;9.63;5.60;;;17.80;55.80;;;;;;5113337;28;20035;-58
2021/10/11 02:53:53;;;;;;;9.73;5.90;;;17.80;55.80;;;;;;5115953;28;20039;-58
2021/10/11 02:56:20;;;;;;;9.50;6.00;;;17.80;55.80;;;;;;5117492;28;20027;-58
2021/10/11 02:58:46;;;;;;;9.98;6.05;;;17.80;55.80;;;;;;5117359;28;20015;-59
2021/10/11 03:01:14;;;;;;;9.80;5.70;;;17.80;55.80;;;;;;5117459;28;20493;-58
2021/10/11 03:03:39;;;;;;;8.98;5.35;;;17.80;55.80;;;;;;5117441;28;20106;-57
2021/10/11 03:06:05;;;;;;;8.68;5.32;;;17.80;55.80;;;;;;5117523;28;20112;-57
2021/10/11 03:08:35;;;;;;;9.93;6.30;;;17.80;55.80;;;;;;5117307;28;20447;-58
2021/10/11 03:11:02;;;;;;;8.80;5.40;;;17.80;55.80;;;;;;5117225;28;20028;-59
2021/10/11 03:13:28;;;;;;;8.77;5.72;;;17.80;55.90;;;;;;5117346;28;20063;-57
2021/10/11 03:15:54;;;;;;;9.13;5.35;;;17.80;55.90;;;;;;5117081;28;20060;-58
2021/10/11 03:18:19;;;;;;;8.00;5.18;;;17.80;55.80;;;;;;5117082;28;20035;-60
2021/10/11 03:20:45;;;;;;;9.18;5.53;;;17.80;55.90;;;;;;5116900;28;20023;-59
2021/10/11 03:23:11;;;;;;;8.45;5.35;;;17.80;55.90;;;;;;5117229;28;20024;-58
2021/10/11 03:25:36;;;;;;;8.43;5.32;;;17.80;55.90;;;;;;5116891;28;20034;-58
2021/10/11 03:28:02;;;;;;;8.75;5.88;;;17.80;55.90;;;;;;5116833;28;20120;-59
2021/10/11 03:30:28;;;;;;;9.90;5.30;;;17.80;55.90;;;;;;5116777;28;20065;-57
2021/10/11 03:32:53;;;;;;;9.20;5.38;;;17.80;56.00;;;;;;5116765;28;20026;-59
2021/10/11 03:35:20;;;;;;;9.27;5.70;;;17.80;55.90;;;;;;5116633;28;20035;-59
2021/10/11 03:37:45;;;;;;;7.72;5.18;;;17.80;55.90;;;;;;5116903;28;20103;-57
2021/10/11 03:40:11;;;;;;;8.48;4.82;;;17.80;56.00;;;;;;5116456;28;20494;-58
2021/10/11 03:42:37;;;;;;;9.63;5.93;;;17.80;56.00;;;;;;5116563;28;20027;-56
2021/10/11 03:45:03;;;;;;;9.60;5.43;;;17.80;56.00;;;;;;5116759;28;20023;-57
2021/10/11 03:47:28;;;;;;;9.18;5.18;;;17.80;56.00;;;;;;5116723;28;20016;-59
2021/10/11 03:49:54;;;;;;;7.47;4.97;;;17.80;55.90;;;;;;5116469;28;20081;-57
2021/10/11 03:52:19;;;;;;;8.93;5.72;;;17.80;56.00;;;;;;5116387;28;20432;-57
2021/10/11 03:54:45;;;;;;;7.80;5.35;;;17.80;56.00;;;;;;5116220;28;20495;-57
2021/10/11 03:57:10;;;;;;;10.10;5.82;;;17.80;56.00;;;;;;5116178;28;20475;-60
2021/10/11 03:59:36;;;;;;;9.00;5.68;;;17.80;56.00;;;;;;5116418;28;20026;-59
2021/10/11 04:02:02;;;;;;;10.20;5.15;;;17.80;56.10;;;;;;5116167;28;20091;-58
2021/10/11 04:04:27;;;;;;;9.18;5.30;;;17.80;56.10;;;;;;5115758;28;20019;-61
2021/10/11 04:06:55;;;;;;;9.00;5.45;;;17.80;56.10;;;;;;5097888;28;20034;-60
2021/10/11 04:09:27;;;;;;;8.35;5.55;;;17.80;56.10;;;;;;5098341;28;20047;-58
2021/10/11 04:11:54;;;;;;;7.75;4.75;;;17.80;56.10;;;;;;5115952;28;20027;-59
2021/10/11 04:14:19;;;;;;;8.95;5.65;;;17.80;56.10;;;;;;5115835;28;20063;-61
2021/10/11 04:16:45;;;;;;;9.57;5.60;;;17.80;56.10;;;;;;5115886;28;20112;-59
2021/10/11 04:19:10;;;;;;;7.90;4.57;;;17.80;56.10;;;;;;5115871;28;20093;-59
2021/10/11 04:21:38;;;;;;;8.57;5.22;;;17.80;56.20;;;;;;5115858;28;20551;-58
2021/10/11 04:24:04;;;;;;;8.73;5.47;;;17.80;56.10;;;;;;5115695;28;20051;-58
2021/10/11 04:26:30;;;;;;;7.45;4.90;;;17.80;56.20;;;;;;5115609;28;20522;-58
2021/10/11 04:28:55;;;;;;;9.50;4.97;;;17.80;56.10;;;;;;5097417;28;20030;-59
2021/10/11 04:31:21;;;;;;;7.63;4.70;;;17.80;56.10;;;;;;5115867;28;20205;-59
2021/10/11 04:33:46;;;;;;;7.93;4.70;;;17.80;56.20;;;;;;5115677;28;20020;-57
2021/10/11 04:36:12;;;;;;;8.38;5.00;;;17.80;56.20;;;;;;5115478;28;20121;-57
2021/10/11 04:38:37;;;;;;;8.35;5.00;;;17.80;56.30;;;;;;5115221;28;20430;-60
2021/10/11 04:41:03;;;;;;;8.13;5.20;;;17.80;56.20;;;;;;5115362;28;20064;-57
2021/10/11 04:43:28;;;;;;;7.53;4.70;;;17.80;56.20;;;;;;5115413;28;20062;-57
2021/10/11 04:45:54;;;;;;;9.23;5.00;;;17.80;56.30;;;;;;5115498;28;20072;-57
2021/10/11 04:48:19;;;;;;;8.25;4.93;;;17.80;56.30;;;;;;5115292;28;20459;-58
2021/10/11 04:50:45;;;;;;;7.13;4.32;;;17.80;56.20;;;;;;5115535;28;20360;-57
2021/10/11 04:53:11;;;;;;;7.85;4.55;;;17.80;56.30;;;;;;5115192;28;20024;-58
2021/10/11 04:55:36;;;;;;;8.50;5.07;;;17.80;56.30;;;;;;5115003;28;20503;-58
2021/10/11 04:58:02;;;;;;;10.90;5.07;;;17.80;56.40;;;;;;5115098;28;20016;-58
2021/10/11 05:00:29;;;;;;;8.55;5.18;;;17.80;56.30;;;;;;5114941;28;20049;-59
2021/10/11 05:02:55;;;;;;;8.45;4.78;;;17.80;56.30;;;;;;5115008;28;20039;-59
2021/10/11 05:05:20;;;;;;;8.20;4.85;;;17.80;56.30;;;;;;5114949;28;20023;-59
2021/10/11 05:07:46;;;;;;;8.52;4.40;;;17.80;56.40;;;;;;5114968;28;20038;-59
2021/10/11 05:10:11;;;;;;;7.93;4.93;;;17.80;56.40;;;;;;5114759;28;20027;-59
2021/10/11 05:12:37;;;;;;;8.27;4.95;;;17.80;56.30;;;;;;5096596;28;20020;-59
2021/10/11 05:15:03;;;;;;;8.20;5.13;;;17.80;56.50;;;;;;5096713;28;20039;-57
2021/10/11 05:17:28;;;;;;;8.63;4.43;;;17.80;56.40;;;;;;5113774;28;20020;-59
2021/10/11 05:19:54;;;;;;;7.75;4.63;;;17.80;56.50;;;;;;5096350;28;20035;-59
2021/10/11 05:22:19;;;;;;;10.13;4.90;;;17.80;56.40;;;;;;5114623;28;20379;-58
2021/10/11 05:24:46;;;;;;;8.35;5.05;;;17.80;56.40;;;;;;5114533;28;20020;-59
2021/10/11 05:27:11;;;;;;;7.20;4.35;;;17.80;56.40;;;;;;5114536;28;20024;-59
2021/10/11 05:29:37;;;;;;;7.10;4.10;;;17.80;56.40;;;;;;5114758;28;20019;-59
2021/10/11 05:32:05;;;;;;;7.75;4.40;;;17.80;56.40;;;;;;5096211;28;20055;-57
2021/10/11 05:34:31;;;;;;;8.27;4.95;;;17.80;56.40;;;;;;5114396;28;20031;-59
2021/10/11 05:36:58;;;;;;;7.30;4.50;;;17.80;56.50;;;;;;5114411;28;20106;-57
2021/10/11 05:39:24;;;;;;;7.45;4.70;;;17.80;56.50;;;;;;5114120;28;20534;-58
2021/10/11 05:41:49;;;;;;;8.15;4.72;;;17.80;56.50;;;;;;5114244;28;20107;-59
2021/10/11 05:44:15;;;;;;;8.52;4.70;;;17.80;56.50;;;;;;5114143;28;20076;-60
2021/10/11 05:46:40;;;;;;;8.23;4.80;;;17.80;56.60;;;;;;5114134;28;20088;-59
2021/10/11 05:49:06;;;;;;;7.80;4.75;;;17.80;56.50;;;;;;5114136;28;20335;-58
2021/10/11 05:51:32;;;;;;;7.50;4.40;;;17.80;56.60;;;;;;5113986;28;20016;-59
2021/10/11 05:53:57;;;;;;;8.82;4.40;;;17.80;56.60;;;;;;5113845;28;20118;-57
2021/10/11 05:56:23;;;;;;;7.45;4.63;;;17.70;56.60;;;;;;5095655;28;20035;-59
2021/10/11 05:58:49;;;;;;;7.63;4.70;;;17.80;56.50;;;;;;5113843;28;20020;-60
2021/10/11 06:01:14;;;;;;;7.75;4.20;;;17.70;56.70;;;;;;5114155;28;20028;-58
2021/10/11 06:03:40;;;;;;;8.25;4.47;;;17.80;56.60;;;;;;5113777;28;20349;-60
2021/10/11 06:06:05;;;;;;;8.05;4.63;;;17.80;56.60;;;;;;5113848;28;20028;-60
2021/10/11 06:08:31;;;;;;;11.85;5.20;;;17.80;56.60;;;;;;5111662;27;20501;-57
2021/10/11 06:10:56;;;;;;;12.05;4.80;;;17.50;59.30;;;;;;5114446;27;20386;-57
2021/10/11 06:13:22;;;;;;;11.65;5.43;;;17.40;60.40;;;;;;5118024;27;20466;-56
2021/10/11 06:15:48;;;;;;;10.88;5.97;;;17.40;60.60;;;;;;5098727;28;20038;-56
2021/10/11 06:18:14;;;;;;;10.15;5.55;;;17.30;61.40;;;;;;5115856;27;20027;-56
2021/10/11 06:20:39;;;;;;;11.13;4.80;;;17.20;61.90;;;;;;5126709;27;20035;-59
2021/10/11 06:23:05;;;;;;;9.98;4.90;;;17.10;62.40;;;;;;5118579;27;20106;-59
2021/10/11 06:25:31;;;;;;;12.18;5.60;;;17.10;62.60;;;;;;5095392;28;20061;-60
2021/10/11 06:27:56;;;;;;;10.90;5.38;;;17.10;63.10;;;;;;5110420;27;20028;-60
2021/10/11 06:30:22;;;;;;;12.10;5.28;;;17.00;63.70;;;;;;5116747;27;20188;-60
2021/10/11 06:32:47;;;;;;;12.85;4.32;;;17.00;63.90;;;;;;5106408;28;20030;-59
2021/10/11 06:35:13;;;;;;;12.35;5.43;;;16.90;63.90;;;;;;5128095;27;20043;-60
2021/10/11 06:37:39;;;;;;;11.32;4.70;;;17.00;63.80;;;;;;5111859;27;20015;-60
2021/10/11 06:40:05;;;;;;;13.55;4.28;;;17.00;64.00;;;;;;5113013;28;20046;-60
2021/10/11 06:42:31;;;;;;;15.43;4.78;;;17.00;64.00;;;;;;5122768;28;20020;-60
2021/10/11 06:44:56;;;;;;;12.35;4.68;;;17.00;63.90;;;;;;5123651;28;20027;-60
2021/10/11 06:47:22;;;;;;;13.40;4.45;;;17.00;64.30;;;;;;5127519;28;20024;-60
2021/10/11 06:49:48;;;;;;;14.23;3.88;;;17.00;64.50;;;;;;5118508;28;20406;-59
2021/10/11 06:52:14;;;;;;;10.73;3.65;;;17.00;64.30;;;;;;5112125;28;20158;-60
2021/10/11 06:54:40;;;;;;;9.95;3.60;;;17.00;64.50;;;;;;5116289;28;20127;-59
2021/10/11 06:57:05;;;;;;;9.25;3.25;;;17.10;64.00;;;;;;5113628;28;20530;-60
2021/10/11 06:59:31;;;;;;;12.85;3.78;;;17.00;64.00;;;;;;5106535;28;20137;-59
2021/10/11 07:01:56;;;;;;;10.07;3.97;;;17.10;64.40;;;;;;5100634;28;20122;-60
2021/10/11 07:04:22;;;;;;;9.07;3.55;;;17.10;63.70;;;;;;5112579;28;20027;-64
2021/10/11 07:06:48;;;;;;;9.52;3.13;;;17.40;61.90;;;;;;5113919;28;20438;-60
2021/10/11 07:09:13;;;;;;;8.32;2.67;;;17.60;61.00;;;;;;5115909;28;20538;-59
2021/10/11 07:11:39;;;;;;;7.15;3.10;;;17.70;60.70;;;;;;5113188;28;20085;-60
2021/10/11 07:14:05;;;;;;;8.25;3.58;;;17.90;60.40;;;;;;5103087;28;20047;-59
2021/10/11 07:16:31;;;;;;;12.27;2.85;;;18.00;60.00;;;;;;5110145;28;20027;-58
2021/10/11 07:18:57;;;;;;;10.13;2.97;;;18.00;59.90;;;;;;5129648;28;20027;-59
2021/10/11 07:21:23;;;;;;;9.77;3.42;;;18.00;59.90;;;;;;5127840;28;20180;-59
2021/10/11 07:23:48;;;;;;;9.45;2.70;;;18.00;59.90;;;;;;5122675;28;20026;-56
2021/10/11 07:26:14;;;;;;;6.68;2.83;;;18.00;59.70;;;;;;5105655;28;20371;-56
2021/10/11 07:28:40;;;;;;;5.95;2.78;;;18.10;59.60;;;;;;5126264;28;20027;-60
2021/10/11 07:31:05;;;;;;;5.82;2.67;;;18.10;59.60;;;;;;5111133;28;20455;-60
2021/10/11 07:33:31;;;;;;;8.13;2.97;;;18.10;59.70;;;;;;5110986;28;20127;-57
2021/10/11 07:35:56;;;;;;;8.18;2.83;;;18.20;59.70;;;;;;5096295;28;20601;-58
2021/10/11 07:38:22;;;;;;;8.18;2.60;;;18.20;59.60;;;;;;5094624;28;20538;-57
2021/10/11 07:40:49;;;;;;;6.88;2.88;;;18.20;59.70;;;;;;5118389;27;20071;-57
2021/10/11 07:43:14;;;;;;;8.27;2.83;;;18.20;59.60;;;;;;5121466;27;20066;-60
2021/10/11 07:45:40;;;;;;;7.88;3.53;;;18.20;59.70;;;;;;5108450;27;20074;-59
2021/10/11 07:48:06;;;;;;;8.23;2.40;;;18.20;59.60;;;;;;5119676;27;20077;-57
2021/10/11 07:50:31;;;;;;;9.35;2.95;;;18.30;59.70;;;;;;5123672;27;20019;-57
2021/10/11 07:52:57;;;;;;;9.43;3.08;;;18.30;59.70;;;;;;5118043;27;20108;-57
2021/10/11 07:55:22;;;;;;;8.27;2.58;;;18.30;59.70;;;;;;5127256;27;20092;-56
2021/10/11 07:57:48;;;;;;;6.40;2.35;;;18.20;59.70;;;;;;5115162;27;20056;-58
2021/10/11 08:00:17;;;;;;;6.55;2.38;;;18.30;59.80;;;;;;5117092;27;20099;-58
2021/10/11 08:02:43;;;;;;;10.10;2.50;;;18.30;59.70;;;;;;5120859;27;20031;-59
2021/10/11 08:05:09;;;;;;;8.25;2.50;;;18.30;59.80;;;;;;5108822;27;20031;-56
2021/10/11 08:07:35;;;;;;;7.25;2.63;;;18.30;59.80;;;;;;5120685;27;20027;-55
2021/10/11 08:10:00;;;;;;;11.73;2.78;;;18.30;59.80;;;;;;5115987;27;20103;-57
2021/10/11 08:12:26;;;;;;;11.52;3.08;;;18.30;59.80;;;;;;5120986;27;20502;-59
2021/10/11 08:14:51;;;;;;;7.30;2.40;;;18.30;59.90;;;;;;5120281;27;20081;-57
2021/10/11 08:17:17;;;;;;;7.45;2.50;;;18.30;59.90;;;;;;5124046;27;20157;-59
2021/10/11 08:19:42;;;;;;;7.63;2.13;;;18.30;59.80;;;;;;5121139;27;20102;-56
2021/10/11 08:22:08;;;;;;;7.97;2.80;;;18.20;59.90;;;;;;5121223;27;20120;-57
2021/10/11 08:24:34;;;;;;;9.27;2.42;;;18.20;59.90;;;;;;5122390;27;20355;-57
2021/10/11 08:26:59;;;;;;;9.35;2.25;;;18.20;59.90;;;;;;5099238;27;20052;-56
2021/10/11 08:29:25;;;;;;;7.95;2.95;;;18.30;60.00;;;;;;5098357;27;20038;-60
2021/10/11 08:31:52;;;;;;;7.05;2.53;;;18.20;59.80;;;;;;5115902;27;20075;-60
2021/10/11 08:34:19;;;;;;;8.95;2.80;;;18.30;59.90;;;;;;5123598;27;20451;-59
2021/10/11 08:36:44;;;;;;;6.10;2.45;;;18.30;60.00;;;;;;5118945;27;20103;-59
2021/10/11 08:39:10;;;;;;;8.18;2.83;;;18.30;59.80;;;;;;5112073;27;20131;-60
2021/10/11 08:41:35;;;;;;;6.22;2.17;;;18.30;59.90;;;;;;5105921;28;20024;-59
2021/10/11 08:44:01;;;;;;;7.22;2.42;;;18.30;59.90;;;;;;5118054;27;20023;-60
2021/10/11 08:46:27;;;;;;;5.90;2.10;;;18.40;60.00;;;;;;5122194;27;20028;-60
2021/10/11 08:48:52;;;;;;;6.25;2.25;;;18.30;60.00;;;;;;5091356;27;20461;-60
2021/10/11 08:51:18;;;;;;;7.88;2.20;;;18.40;59.80;;;;;;5118569;27;20368;-59
2021/10/11 08:53:43;;;;;;;5.35;2.03;;;18.40;59.60;;;;;;5117224;27;20032;-58
2021/10/11 08:56:11;;;;;;;4.78;2.08;;;18.50;59.70;;;;;;5105442;27;20084;-60
2021/10/11 08:58:48;;;;;;;8.75;2.75;;;18.50;59.80;;;;;;5118940;27;20023;-60
2021/10/11 09:01:15;;;;;;;8.25;2.33;;;18.50;59.70;;;;;;5107811;27;20039;-61
2021/10/11 09:03:40;;;;;;;7.72;2.25;;;18.50;59.70;;;;;;5128252;27;20378;-60
2021/10/11 09:06:09;;;;;;;6.68;2.20;;;18.50;59.60;;;;;;5125650;27;20031;-60
2021/10/11 09:08:35;;;;;;;9.55;2.63;;;18.60;59.50;;;;;;5105409;27;20730;-59
2021/10/11 09:11:07;;;;;;;5.47;2.00;;;18.60;59.60;;;;;;5122850;27;20396;-61
2021/10/11 09:13:45;;;;;;;6.93;2.47;;;18.70;59.60;;;;;;5124586;27;20016;-63
2021/10/11 09:16:31;;;;;;;5.38;2.20;;;18.70;59.70;;;;;;5120097;27;20698;-60
2021/10/11 09:19:14;;;;;;;7.50;2.45;;;18.70;59.70;;;;;;5117845;27;20035;-61
2021/10/11 09:21:40;;;;;;;6.72;1.90;;;18.70;59.70;;;;;;5113992;27;20102;-60
2021/10/11 09:24:06;;;;;;;5.82;2.10;;;18.80;59.80;;;;;;5119528;27;20114;-60
2021/10/11 09:26:47;;;;;;;5.40;2.20;;;18.80;59.80;;;;;;5116991;27;20027;-59
2021/10/11 09:29:27;;;;;;;12.55;2.75;;;18.80;59.80;;;;;;5116573;27;20027;-60
2021/10/11 09:31:53;;;;;;;6.93;2.08;;;18.90;59.70;;;;;;5115899;27;20375;-60
2021/10/11 09:34:20;;;;;;;5.22;1.88;;;18.90;59.70;;;;;;5118523;27;20064;-60
2021/10/11 09:36:56;;;;;;;8.48;2.28;;;18.90;59.70;;;;;;5125396;27;20065;-61
2021/10/11 09:39:23;;;;;;;6.90;1.98;;;18.90;59.50;;;;;;5126785;27;20134;-60
2021/10/11 09:41:50;;;;;;;6.20;2.40;;;18.90;59.60;;;;;;5120796;27;20047;-60
2021/10/11 09:44:18;;;;;;;7.45;1.77;;;18.90;59.70;;;;;;5122823;27;20469;-60
2021/10/11 09:46:46;;;;;;;9.20;2.53;;;19.00;59.90;;;;;;5118175;27;20113;-60
2021/10/11 09:49:12;;;;;;;10.50;2.22;;;19.00;59.60;;;;;;5118337;27;20028;-59
2021/10/11 09:51:37;;;;;;;14.48;2.28;;;19.00;59.50;;;;;;5098755;27;20055;-57
2021/10/11 09:54:03;;;;;;;11.27;2.33;;;19.10;59.60;;;;;;5117000;27;20466;-59
2021/10/11 09:56:29;;;;;;;6.72;2.05;;;19.10;59.50;;;;;;5122499;27;20500;-59
2021/10/11 09:58:55;;;;;;;7.22;1.73;;;19.10;59.40;;;;;;5124293;27;20044;-59
2021/10/11 10:01:22;;;;;;;6.63;1.88;;;19.10;59.40;;;;;;5116374;27;20038;-59
2021/10/11 10:03:49;;;;;;;6.28;1.90;;;19.20;59.40;;;;;;5116149;27;20023;-60
2021/10/11 10:06:15;;;;;;;7.20;2.15;;;19.20;59.30;;;;;;5119351;27;20036;-59
2021/10/11 10:08:43;;;;;;;5.45;1.90;;;19.30;59.30;;;;;;5124069;27;20021;-59
2021/10/11 10:11:09;;;;;;;6.03;2.17;;;19.30;59.20;;;;;;5106129;28;20046;-59
2021/10/11 10:13:46;;;;;;;6.40;2.33;;;19.30;59.20;;;;;;5108714;27;20023;-59
2021/10/11 10:16:13;;;;;;;8.52;2.00;;;19.30;59.10;;;;;;5124066;27;20441;-58
2021/10/11 10:18:42;;;;;;;8.85;1.92;;;19.40;59.00;;;;;;5124008;27;20051;-59
2021/10/11 10:21:08;;;;;;;6.75;2.00;;;19.50;59.00;;;;;;5104986;27;20031;-59
2021/10/11 10:23:39;;;;;;;4.28;1.65;;;19.50;58.90;;;;;;5125375;27;20053;-59
2021/10/11 10:26:08;;;;;;;6.65;2.03;;;19.60;58.90;;;;;;5098658;28;20035;-58
2021/10/11 10:28:50;;;;;;;8.05;2.00;;;19.60;58.70;;;;;;5114606;27;20043;-59
2021/10/11 10:31:35;;;;;;;6.25;1.95;;;19.70;58.70;;;;;;5119121;27;20444;-59
2021/10/11 10:34:12;;;;;;;6.05;1.85;;;19.70;58.50;;;;;;5111563;27;20024;-59
2021/10/11 10:36:42;;;;;;;4.72;1.52;;;19.80;58.40;;;;;;5116980;27;20031;-59
2021/10/11 10:39:09;;;;;;;8.77;1.58;;;19.80;58.30;;;;;;5119710;27;20372;-58
2021/10/11 10:41:37;;;;;;;4.60;1.80;;;19.90;58.20;;;;;;5123186;27;20142;-59
2021/10/11 10:44:11;;;;;;;6.22;1.70;;;20.00;58.20;;;;;;5115429;28;20031;-58
2021/10/11 10:46:49;;;;;;;6.57;1.88;;;20.00;58.10;;;;;;5127598;28;20102;-59
2021/10/11 10:49:35;;;;;;;8.18;1.90;;;20.10;57.90;;;;;;5097115;28;20043;-59
2021/10/11 10:52:08;;;;;;;5.30;1.88;;;20.10;58.00;;;;;;5098528;28;20632;-59
2021/10/11 10:54:42;;;;;;;3.47;1.55;;;20.10;57.90;;;;;;5118000;28;20156;-60
2021/10/11 10:57:10;;;;;;;7.47;1.63;;;20.20;57.80;;;;;;5114231;28;20035;-59
2021/10/11 10:59:36;;;;;;;6.55;2.15;;;20.20;57.90;;;;;;5107311;28;20117;-59
2021/10/11 11:02:06;;;;;;;5.53;1.60;;;20.30;57.60;;;;;;5117635;28;20040;-58
2021/10/11 11:04:33;;;;;;;6.72;1.65;;;20.40;57.60;;;;;;5121391;28;20635;-56
2021/10/11 11:07:00;;;;;;;5.40;1.60;;;20.40;57.50;;;;;;5122769;28;20034;-58
2021/10/11 11:09:38;;;;;;;6.05;1.70;;;20.50;57.50;;;;;;5108535;28;20030;-58
2021/10/11 11:12:04;;;;;;;6.40;1.88;;;20.50;57.40;;;;;;5119376;28;20084;-59
2021/10/11 11:14:29;;;;;;;4.78;2.00;;;20.50;57.30;;;;;;5118857;27;20023;-60
2021/10/11 11:16:55;;;;;;;5.57;1.80;;;20.70;57.10;;;;;;5125040;27;20039;-59
2021/10/11 11:19:22;;;;;;;8.60;1.67;;;20.70;57.00;;;;;;5110095;27;20062;-59
2021/10/11 11:21:58;;;;;;;6.78;1.60;;;20.80;56.80;;;;;;5102091;27;20054;-60
2021/10/11 11:24:24;;;;;;;5.43;1.90;;;20.80;56.90;;;;;;5121261;27;20023;-60
2021/10/11 11:26:49;;;;;;;4.68;1.52;;;20.90;56.70;;;;;;5121306;27;20505;-60
2021/10/11 11:29:15;;;;;;;6.70;2.03;;;20.90;56.70;;;;;;5111407;27;20041;-60
2021/10/11 11:31:49;;;;;;;5.78;1.88;;;20.80;57.00;;;;;;5119510;27;20027;-60
2021/10/11 11:34:14;;;;;;;5.13;1.90;;;20.90;56.90;;;;;;5120531;27;20142;-60
2021/10/11 11:36:51;;;;;;;8.68;2.13;;;20.90;56.80;;;;;;5125989;27;20107;-60
2021/10/11 11:39:18;;;;;;;4.35;1.42;;;20.80;57.10;;;;;;5106452;27;20031;-59
2021/10/11 11:41:53;;;;;;;4.68;1.70;;;20.80;57.20;;;;;;5119671;27;20027;-59
2021/10/11 11:44:23;;;;;;;4.45;1.70;;;20.70;57.30;;;;;;5119828;27;20104;-60
2021/10/11 11:47:02;;;;;;;5.22;1.77;;;20.80;57.30;;;;;;5100644;28;20517;-60
2021/10/11 11:49:28;;;;;;;5.35;1.42;;;20.90;57.10;;;;;;5107884;27;20023;-59
2021/10/11 11:52:10;;;;;;;6.70;1.65;;;20.90;56.90;;;;;;5117854;27;20034;-59
2021/10/11 11:54:38;;;;;;;6.90;1.75;;;21.00;57.00;;;;;;5125060;27;20140;-59
2021/10/11 11:57:04;;;;;;;7.03;2.08;;;21.00;56.90;;;;;;5118681;27;20461;-59
2021/10/11 11:59:30;;;;;;;4.45;1.52;;;21.00;56.70;;;;;;5117248;27;20041;-59
2021/10/11 12:01:59;;;;;;;4.47;1.50;;;21.10;56.40;;;;;;5113822;27;20024;-58
2021/10/11 12:04:26;;;;;;;5.78;1.20;;;21.20;56.50;;;;;;5118698;27;20494;-58
2021/10/11 12:06:51;;;;;;;6.40;1.52;;;21.20;56.50;;;;;;5126243;27;20053;-56
2021/10/11 12:09:23;;;;;;;5.65;1.98;;;21.20;56.50;;;;;;5109672;27;20530;-52
2021/10/11 12:12:00;;;;;;;6.10;1.50;;;21.10;56.60;;;;;;5073527;28;20035;-59
2021/10/11 12:14:26;;;;;;;4.88;1.58;;;21.10;56.70;;;;;;5119514;27;20058;-58
2021/10/11 12:17:02;;;;;;;8.48;1.77;;;21.10;56.70;;;;;;5120995;27;20039;-56
2021/10/11 12:19:29;;;;;;;4.75;1.58;;;21.10;56.80;;;;;;5111243;27;20080;-58
2021/10/11 12:21:56;;;;;;;3.25;1.20;;;21.20;56.60;;;;;;5110184;27;20035;-59
2021/10/11 12:24:23;;;;;;;3.92;1.40;;;21.30;56.40;;;;;;5118865;27;20751;-57
2021/10/11 12:26:57;;;;;;;7.07;2.25;;;21.20;56.40;;;;;;5123753;27;20023;-58
2021/10/11 12:29:27;;;;;;;4.82;1.50;;;21.20;56.60;;;;;;5096999;27;20023;-57
2021/10/11 12:32:01;;;;;;;7.90;1.60;;;21.10;56.70;;;;;;5117493;27;20035;-59
2021/10/11 12:34:35;;;;;;;3.38;1.20;;;21.10;56.90;;;;;;5115288;27;20043;-57
2021/10/11 12:37:03;;;;;;;5.30;1.42;;;21.10;56.90;;;;;;5107271;27;20027;-59
2021/10/11 12:39:37;;;;;;;3.58;1.23;;;21.00;57.00;;;;;;5115016;27;20387;-58
2021/10/11 12:42:07;;;;;;;5.68;1.73;;;21.00;57.00;;;;;;5120837;27;20026;-59
2021/10/11 12:44:49;;;;;;;4.97;1.13;;;21.00;57.10;;;;;;5107547;27;20060;-55